createdAt,value
2018-01-05T00:00:59.134Z,17.40
2018-01-05T00:03:27.833Z,17.40
2018-01-05T00:05:56.617Z,17.30
2018-01-05T00:08:24.581Z,17.40
2018-01-05T00:10:53.257Z,17.40
2018-01-05T00:13:21.201Z,17.40
2018-01-05T00:15:49.998Z,17.40
2018-01-05T00:18:19.491Z,17.40
2018-01-05T00:20:47.486Z,17.40
2018-01-05T00:23:15.369Z,17.30
2018-01-05T00:25:43.271Z,17.30
2018-01-05T00:28:11.124Z,17.40
2018-01-05T00:30:38.964Z,17.30
2018-01-05T00:33:06.883Z,17.30
2018-01-05T00:35:34.834Z,17.30
2018-01-05T00:38:02.731Z,17.30
2018-01-05T00:40:30.557Z,17.30
2018-01-05T00:42:58.506Z,17.30
2018-01-05T00:45:26.947Z,17.30
2018-01-05T00:47:54.789Z,17.30
2018-01-05T00:50:22.711Z,17.30
2018-01-05T00:52:50.570Z,17.20
2018-01-05T00:55:18.505Z,17.20
2018-01-05T00:57:47.281Z,17.20
2018-01-05T01:00:15.917Z,17.20
2018-01-05T01:02:43.799Z,17.20
2018-01-05T01:05:11.636Z,17.20
2018-01-05T01:07:39.579Z,17.10
2018-01-05T01:10:07.582Z,17.20
2018-01-05T01:12:35.489Z,17.10
2018-01-05T01:15:03.415Z,17.10
2018-01-05T01:17:31.270Z,17.10
2018-01-05T01:19:59.891Z,17.10
2018-01-05T01:22:28.281Z,17.00
2018-01-05T01:24:56.213Z,17.10
2018-01-05T01:27:24.045Z,17.10
2018-01-05T01:29:51.952Z,17.00
2018-01-05T01:32:19.883Z,17.00
2018-01-05T01:34:47.798Z,17.00
2018-01-05T01:37:15.705Z,17.00
2018-01-05T01:39:43.695Z,17.00
2018-01-05T01:42:11.548Z,17.00
2018-01-05T01:44:39.473Z,17.00
2018-01-05T01:47:07.367Z,17.00
2018-01-05T01:49:35.220Z,17.00
2018-01-05T01:52:03.900Z,17.00
2018-01-05T01:54:31.791Z,17.00
2018-01-05T01:56:59.728Z,17.00
2018-01-05T01:59:27.591Z,17.00
2018-01-05T02:01:56.192Z,16.90
2018-01-05T02:04:24.020Z,16.90
2018-01-05T02:06:51.922Z,17.00
2018-01-05T02:09:19.778Z,16.90
2018-01-05T02:11:48.446Z,16.90
2018-01-05T02:14:16.307Z,16.90
2018-01-05T02:16:44.178Z,16.90
2018-01-05T02:19:12.086Z,16.90
2018-01-05T02:21:39.967Z,16.90
2018-01-05T02:24:07.795Z,16.90
2018-01-05T02:26:35.659Z,16.90
2018-01-05T02:29:04.322Z,16.90
2018-01-05T02:31:32.273Z,16.80
2018-01-05T02:34:00.138Z,16.90
2018-01-05T02:36:28.059Z,16.90
2018-01-05T02:38:55.950Z,16.80
2018-01-05T02:41:23.766Z,16.90
2018-01-05T02:43:51.616Z,16.80
2018-01-05T02:46:19.754Z,16.80
2018-01-05T02:48:47.618Z,16.80
2018-01-05T02:51:15.402Z,16.80
2018-01-05T02:53:43.249Z,16.80
2018-01-05T02:56:11.068Z,16.80
2018-01-05T02:58:38.884Z,16.80
2018-01-05T03:01:07.483Z,16.80
2018-01-05T03:03:35.363Z,16.70
2018-01-05T03:06:04.013Z,16.70
2018-01-05T03:08:31.817Z,16.70
2018-01-05T03:11:00.477Z,16.70
2018-01-05T03:13:28.341Z,16.70
2018-01-05T03:15:56.151Z,16.70
2018-01-05T03:18:24.735Z,16.70
2018-01-05T03:20:53.284Z,16.70
2018-01-05T03:23:21.889Z,16.70
2018-01-05T03:25:49.722Z,16.70
2018-01-05T03:28:17.580Z,16.60
2018-01-05T03:30:45.448Z,16.60
2018-01-05T03:33:13.264Z,16.60
2018-01-05T03:35:41.086Z,16.60
2018-01-05T03:38:08.988Z,16.60
2018-01-05T03:40:36.835Z,16.60
2018-01-05T03:43:04.790Z,16.60
2018-01-05T03:45:32.651Z,16.60
2018-01-05T03:48:00.481Z,16.60
2018-01-05T03:50:28.333Z,16.60
2018-01-05T03:52:56.143Z,16.60
2018-01-05T03:55:23.985Z,16.60
2018-01-05T03:57:52.551Z,16.60
2018-01-05T04:00:20.372Z,16.50
2018-01-05T04:02:48.222Z,16.60
2018-01-05T04:05:16.097Z,16.50
2018-01-05T04:07:43.951Z,16.50
2018-01-05T04:10:11.811Z,16.60
2018-01-05T04:12:39.671Z,16.60
2018-01-05T04:15:07.822Z,16.50
2018-01-05T04:17:35.850Z,16.50
2018-01-05T04:20:03.723Z,16.50
2018-01-05T04:22:31.533Z,16.50
2018-01-05T04:24:59.299Z,16.50
2018-01-05T04:27:27.160Z,16.50
2018-01-05T04:29:54.962Z,16.50
2018-01-05T04:32:22.841Z,16.50
2018-01-05T04:34:51.487Z,16.50
2018-01-05T04:37:19.279Z,16.40
2018-01-05T04:39:47.142Z,16.50
2018-01-05T04:42:14.990Z,16.40
2018-01-05T04:44:42.838Z,16.40
2018-01-05T04:47:10.690Z,16.40
2018-01-05T04:49:38.456Z,16.40
2018-01-05T04:52:06.298Z,16.40
2018-01-05T04:54:34.935Z,16.50
2018-01-05T04:57:03.580Z,16.50
2018-01-05T04:59:31.456Z,16.50
2018-01-05T05:02:00.062Z,16.70
2018-01-05T05:04:27.836Z,16.70
2018-01-05T05:06:55.686Z,16.80
2018-01-05T05:09:23.496Z,16.90
2018-01-05T05:11:51.294Z,17.00
2018-01-05T05:14:20.070Z,17.10
2018-01-05T05:16:47.882Z,17.20
2018-01-05T05:19:15.723Z,17.40
2018-01-05T05:21:43.515Z,17.40
2018-01-05T05:24:11.341Z,17.50
2018-01-05T05:26:39.152Z,17.60
2018-01-05T05:29:06.988Z,17.70
2018-01-05T05:31:34.818Z,17.70
2018-01-05T05:34:02.684Z,17.80
2018-01-05T05:36:30.525Z,17.90
2018-01-05T05:38:58.325Z,17.90
2018-01-05T05:41:26.808Z,18.00
2018-01-05T05:43:54.627Z,18.00
2018-01-05T05:46:23.213Z,18.00
2018-01-05T05:48:51.060Z,17.90
2018-01-05T05:51:18.907Z,17.90
2018-01-05T05:53:47.667Z,18.00
2018-01-05T05:56:15.563Z,18.00
2018-01-05T05:58:43.390Z,17.90
2018-01-05T06:01:11.220Z,17.90
2018-01-05T06:03:39.095Z,17.90
2018-01-05T06:06:06.964Z,17.90
2018-01-05T06:08:34.860Z,17.80
2018-01-05T06:11:03.679Z,17.70
2018-01-05T06:13:31.520Z,17.70
2018-01-05T06:16:00.128Z,17.70
2018-01-05T06:18:27.973Z,17.60
2018-01-05T06:20:56.652Z,17.60
2018-01-05T06:23:25.350Z,17.60
2018-01-05T06:25:53.295Z,17.50
2018-01-05T06:28:21.280Z,17.50
2018-01-05T06:30:49.890Z,17.50
2018-01-05T06:33:18.670Z,17.40
2018-01-05T06:35:46.478Z,17.40
2018-01-05T06:38:14.389Z,17.40
2018-01-05T06:40:42.308Z,17.40
2018-01-05T06:43:10.188Z,17.40
2018-01-05T06:45:38.101Z,17.30
2018-01-05T06:48:05.944Z,17.40
2018-01-05T06:50:33.797Z,17.30
2018-01-05T06:53:01.661Z,17.30
2018-01-05T06:55:29.498Z,17.30
2018-01-05T06:57:57.380Z,17.20
2018-01-05T07:00:26.164Z,17.20
2018-01-05T07:02:54.002Z,17.20
2018-01-05T07:05:21.863Z,17.10
2018-01-05T07:07:49.754Z,17.10
2018-01-05T07:10:18.375Z,17.00
2018-01-05T07:12:46.641Z,17.00
2018-01-05T07:15:14.488Z,17.00
2018-01-05T07:17:42.342Z,17.00
2018-01-05T07:20:10.890Z,17.00
2018-01-05T07:22:38.757Z,16.90
2018-01-05T07:25:06.613Z,16.90
2018-01-05T07:27:34.474Z,16.90
2018-01-05T07:30:02.344Z,16.90
2018-01-05T07:32:30.175Z,16.80
2018-01-05T07:34:58.796Z,16.80
2018-01-05T07:37:26.861Z,16.70
2018-01-05T07:39:54.777Z,16.80
2018-01-05T07:42:22.639Z,16.70
2018-01-05T07:44:50.501Z,16.80
2018-01-05T07:47:18.357Z,16.80
2018-01-05T07:49:46.180Z,16.80
2018-01-05T07:52:14.017Z,16.80
2018-01-05T07:54:42.012Z,16.90
2018-01-05T07:57:09.893Z,16.90
2018-01-05T07:59:37.772Z,17.00
2018-01-05T08:02:05.603Z,17.00
2018-01-05T08:04:33.515Z,17.10
2018-01-05T08:07:15.370Z,17.20
2018-01-05T08:09:43.531Z,17.30
2018-01-05T08:12:11.402Z,17.50
2018-01-05T08:14:39.208Z,17.60
2018-01-05T08:17:07.106Z,17.60
2018-01-05T08:19:34.964Z,17.70
2018-01-05T08:22:02.805Z,17.80
2018-01-05T08:24:30.653Z,17.90
2018-01-05T08:26:58.507Z,17.90
2018-01-05T08:29:26.964Z,17.90
2018-01-05T08:31:54.755Z,17.80
2018-01-05T08:34:22.566Z,17.90
2018-01-05T08:36:50.978Z,17.90
2018-01-05T08:39:18.819Z,17.90
2018-01-05T08:41:47.469Z,17.80
2018-01-05T08:44:15.328Z,17.80
2018-01-05T08:46:44.057Z,17.80
2018-01-05T08:49:12.631Z,17.80
2018-01-05T08:51:40.450Z,17.70
2018-01-05T08:54:08.267Z,17.70
2018-01-05T08:56:36.118Z,17.80
2018-01-05T08:59:05.340Z,17.20
2018-01-05T09:01:33.971Z,16.90
2018-01-05T09:04:01.792Z,16.80
2018-01-05T09:06:30.448Z,16.00
2018-01-05T09:08:58.540Z,16.00
2018-01-05T09:11:26.392Z,16.40
2018-01-05T09:13:54.327Z,16.40
2018-01-05T09:16:22.287Z,16.50
2018-01-05T09:18:50.228Z,16.60
2018-01-05T09:21:18.098Z,16.90
2018-01-05T09:23:45.914Z,17.00
2018-01-05T09:26:13.702Z,17.10
2018-01-05T09:28:41.476Z,17.20
2018-01-05T09:31:09.330Z,17.20
2018-01-05T09:33:37.200Z,17.10
2018-01-05T09:36:04.997Z,17.00
2018-01-05T09:38:32.859Z,17.00
2018-01-05T09:41:00.642Z,16.90
2018-01-05T09:43:28.412Z,17.10
2018-01-05T09:45:56.202Z,17.00
2018-01-05T09:48:24.039Z,16.80
2018-01-05T09:50:51.916Z,16.80
2018-01-05T09:53:19.742Z,16.90
2018-01-05T09:55:47.593Z,16.80
2018-01-05T09:58:15.383Z,16.90
2018-01-05T10:00:43.208Z,16.20
2018-01-05T10:03:11.816Z,14.80
2018-01-05T10:05:39.664Z,14.70
2018-01-05T10:08:08.183Z,15.50
2018-01-05T10:10:35.958Z,15.50
2018-01-05T10:13:03.788Z,16.00
2018-01-05T10:15:31.626Z,16.30
2018-01-05T10:17:59.435Z,16.40
2018-01-05T10:20:27.303Z,15.90
2018-01-05T10:22:55.172Z,16.00
2018-01-05T10:25:23.037Z,16.20
2018-01-05T10:27:50.927Z,16.30
2018-01-05T10:30:18.771Z,15.00
2018-01-05T10:32:46.559Z,15.00
2018-01-05T10:35:14.395Z,14.90
2018-01-05T10:37:42.998Z,14.00
2018-01-05T10:40:10.822Z,13.90
2018-01-05T10:42:38.599Z,13.60
2018-01-05T10:45:07.334Z,14.40
2018-01-05T10:47:35.173Z,13.80
2018-01-05T10:50:03.055Z,13.60
2018-01-05T10:52:30.922Z,13.60
2018-01-05T10:54:59.721Z,13.70
2018-01-05T10:57:27.588Z,13.80
2018-01-05T10:59:55.456Z,13.00
2018-01-05T11:02:23.300Z,13.10
2018-01-05T11:04:51.894Z,15.10
2018-01-05T11:07:20.480Z,16.00
2018-01-05T11:09:48.343Z,16.00
2018-01-05T11:12:16.972Z,16.80
2018-01-05T11:14:44.803Z,16.80
2018-01-05T11:17:13.586Z,17.20
2018-01-05T11:19:41.435Z,17.10
2018-01-05T11:22:09.302Z,17.20
2018-01-05T11:24:37.058Z,17.30
2018-01-05T11:27:04.951Z,17.10
2018-01-05T11:29:33.558Z,16.50
2018-01-05T11:32:02.144Z,16.90
2018-01-05T11:34:29.924Z,16.90
2018-01-05T11:36:57.842Z,17.30
2018-01-05T11:39:25.644Z,17.50
2018-01-05T11:41:53.935Z,17.50
2018-01-05T11:44:21.717Z,17.60
2018-01-05T11:46:49.519Z,17.70
2018-01-05T11:49:17.388Z,17.70
2018-01-05T11:51:46.038Z,17.30
2018-01-05T11:54:13.811Z,17.30
2018-01-05T11:56:41.577Z,17.20
2018-01-05T11:59:09.404Z,16.70
2018-01-05T12:01:37.275Z,16.60
2018-01-05T12:04:05.915Z,16.60
2018-01-05T12:06:33.896Z,16.60
2018-01-05T12:09:01.733Z,16.90
2018-01-05T12:11:29.589Z,17.10
2018-01-05T12:13:58.480Z,17.30
2018-01-05T12:16:26.372Z,17.30
2018-01-05T12:18:54.264Z,17.30
2018-01-05T12:21:22.133Z,17.30
2018-01-05T12:23:49.931Z,17.30
2018-01-05T12:26:20.510Z,17.30
2018-01-05T12:28:49.214Z,17.30
2018-01-05T12:31:19.581Z,17.30
2018-01-05T12:33:47.526Z,17.20
2018-01-05T12:36:16.420Z,17.20
2018-01-05T12:38:44.220Z,17.20
2018-01-05T12:41:12.799Z,16.60
2018-01-05T12:43:40.544Z,16.60
2018-01-05T12:46:08.362Z,16.60
2018-01-05T12:48:36.770Z,16.60
2018-01-05T12:51:04.630Z,16.70
2018-01-05T12:53:32.458Z,16.10
2018-01-05T12:56:00.342Z,15.00
2018-01-05T12:58:28.226Z,15.00
2018-01-05T13:00:56.081Z,15.60
2018-01-05T13:03:23.888Z,15.90
2018-01-05T13:05:51.775Z,15.70
2018-01-05T13:08:19.613Z,15.50
2018-01-05T13:10:48.255Z,15.40
2018-01-05T13:13:16.070Z,15.30
2018-01-05T13:15:43.946Z,15.30
2018-01-05T13:18:11.870Z,16.00
2018-01-05T13:20:40.558Z,16.30
2018-01-05T13:23:09.338Z,16.50
2018-01-05T13:25:37.227Z,16.50
2018-01-05T13:28:05.127Z,16.80
2018-01-05T13:30:33.048Z,16.90
2018-01-05T13:33:01.868Z,16.90
2018-01-05T13:35:29.756Z,17.10
2018-01-05T13:37:57.618Z,17.40
2018-01-05T13:40:25.533Z,17.50
2018-01-05T13:42:53.455Z,17.70
2018-01-05T13:45:21.432Z,17.80
2018-01-05T13:47:49.311Z,17.90
2018-01-05T13:50:17.142Z,17.80
2018-01-05T13:52:45.089Z,17.90
2018-01-05T13:55:12.872Z,17.70
2018-01-05T13:57:40.760Z,17.70
2018-01-05T14:00:08.610Z,17.80
2018-01-05T14:02:37.064Z,17.80
2018-01-05T14:05:04.877Z,17.80
2018-01-05T14:07:32.751Z,17.80
2018-01-05T14:10:00.547Z,17.80
2018-01-05T14:12:28.357Z,17.70
2018-01-05T14:14:56.126Z,17.50
2018-01-05T14:17:23.991Z,17.50
2018-01-05T14:19:51.856Z,17.50
2018-01-05T14:22:20.546Z,17.60
2018-01-05T14:24:49.256Z,17.70
2018-01-05T14:27:28.633Z,17.60
2018-01-05T14:30:11.671Z,17.60
2018-01-05T14:32:39.569Z,17.60
2018-01-05T14:35:08.161Z,17.60
2018-01-05T14:37:38.716Z,17.50
2018-01-05T14:40:08.544Z,17.10
2018-01-05T14:42:36.395Z,17.10
2018-01-05T14:45:04.322Z,17.30
2018-01-05T14:47:32.227Z,17.40
2018-01-05T14:50:00.462Z,17.40
2018-01-05T14:52:28.396Z,17.50
2018-01-05T14:54:56.908Z,17.40
2018-01-05T14:57:25.683Z,17.40
2018-01-05T14:59:53.547Z,17.40
2018-01-05T15:02:21.368Z,17.40
2018-01-05T15:04:49.909Z,17.30
2018-01-05T15:07:17.702Z,17.30
2018-01-05T15:09:47.565Z,17.30
2018-01-05T15:12:16.050Z,17.30
2018-01-05T15:14:43.970Z,17.20
2018-01-05T15:17:12.766Z,17.20
2018-01-05T15:19:40.916Z,17.20
2018-01-05T15:22:09.125Z,17.10
2018-01-05T15:24:37.070Z,17.10
2018-01-05T15:27:05.211Z,17.10
2018-01-05T15:29:34.110Z,17.10
2018-01-05T15:32:02.098Z,17.20
2018-01-05T15:34:30.157Z,17.20
2018-01-05T15:37:21.065Z,17.20
2018-01-05T15:40:01.615Z,17.30
2018-01-05T15:42:35.786Z,17.30
2018-01-05T15:45:25.501Z,17.40
2018-01-05T15:50:52.268Z,17.40
2018-01-05T16:10:05.740Z,17.90
2018-01-05T16:12:34.806Z,17.80
2018-01-05T16:15:03.446Z,17.80
2018-01-05T16:17:31.592Z,17.90
2018-01-05T16:20:01.348Z,17.90
2018-01-05T16:22:29.968Z,18.00
2018-01-05T16:24:57.989Z,18.00
2018-01-05T16:27:26.787Z,18.00
2018-01-05T16:29:55.720Z,18.00
2018-01-05T16:35:16.172Z,18.00
2018-01-05T16:37:58.497Z,17.90
2018-01-05T16:40:28.346Z,17.90
2018-01-05T16:43:11.358Z,17.90
2018-01-05T16:45:40.117Z,17.80
2018-01-05T16:48:08.112Z,17.80
2018-01-05T16:50:36.771Z,17.80
2018-01-05T16:53:04.837Z,17.80
2018-01-05T16:55:33.131Z,17.70
2018-01-05T16:58:04.834Z,17.70
2018-01-05T17:00:32.698Z,17.60
2018-01-05T17:03:00.633Z,17.60
2018-01-05T17:05:28.579Z,17.60
2018-01-05T17:07:56.425Z,17.60
2018-01-05T17:10:24.274Z,17.50
2018-01-05T17:12:52.082Z,17.50
2018-01-05T17:15:20.730Z,17.50
2018-01-05T17:17:49.060Z,17.40
2018-01-05T17:20:16.992Z,17.50
2018-01-05T17:22:44.835Z,17.40
2018-01-05T17:25:12.680Z,17.40
2018-01-05T17:27:40.529Z,17.40
2018-01-05T17:30:09.169Z,17.40
2018-01-05T17:32:37.037Z,17.30
2018-01-05T17:35:04.901Z,17.40
2018-01-05T17:37:32.801Z,17.40
2018-01-05T17:40:00.663Z,17.40
2018-01-05T17:42:28.568Z,17.40
2018-01-05T17:44:56.343Z,17.40
2018-01-05T17:47:24.263Z,17.40
2018-01-05T17:49:52.137Z,17.50
2018-01-05T17:52:19.972Z,17.50
2018-01-05T17:54:48.684Z,17.60
2018-01-05T17:57:16.519Z,17.50
2018-01-05T17:59:44.351Z,17.60
2018-01-05T18:02:12.319Z,17.70
2018-01-05T18:04:40.184Z,17.70
2018-01-05T18:07:08.027Z,17.80
2018-01-05T18:09:35.878Z,17.80
2018-01-05T18:12:03.740Z,17.90
2018-01-05T18:14:32.602Z,17.90
2018-01-05T18:17:01.391Z,18.00
2018-01-05T18:19:30.128Z,18.00
2018-01-05T18:21:58.515Z,18.00
2018-01-05T18:24:26.362Z,18.00
2018-01-05T18:26:54.211Z,18.10
2018-01-05T18:29:22.105Z,18.00
2018-01-05T18:31:49.938Z,18.10
2018-01-05T18:34:17.798Z,18.10
2018-01-05T18:36:46.432Z,18.10
2018-01-05T18:39:14.358Z,18.00
2018-01-05T18:41:42.912Z,18.00
2018-01-05T18:44:10.773Z,18.00
2018-01-05T18:46:38.615Z,18.00
2018-01-05T18:49:06.419Z,18.00
2018-01-05T18:51:34.272Z,18.00
2018-01-05T18:54:02.090Z,18.00
2018-01-05T18:56:29.905Z,18.00
2018-01-05T18:58:57.817Z,17.90
2018-01-05T19:01:25.675Z,17.90
2018-01-05T19:03:53.576Z,17.90
2018-01-05T19:06:21.488Z,17.80
2018-01-05T19:08:49.377Z,17.80
2018-01-05T19:11:17.324Z,17.80
2018-01-05T19:13:45.130Z,17.80
2018-01-05T19:16:12.926Z,17.70
2018-01-05T19:18:40.766Z,17.70
2018-01-05T19:21:09.336Z,17.70
2018-01-05T19:23:37.194Z,17.60
2018-01-05T19:26:05.072Z,17.60
2018-01-05T19:28:32.883Z,17.60
2018-01-05T19:31:00.689Z,17.60
2018-01-05T19:33:28.512Z,17.60
2018-01-05T19:35:56.291Z,17.60
2018-01-05T19:40:58.847Z,17.70
2018-01-05T19:43:26.714Z,17.60
2018-01-05T19:45:54.554Z,17.70
2018-01-05T19:48:22.398Z,17.70
2018-01-05T19:50:50.192Z,17.60
2018-01-05T19:53:18.986Z,17.70
2018-01-05T19:55:46.863Z,17.70
2018-01-05T19:58:14.662Z,17.80
2018-01-05T20:00:43.334Z,17.90
2018-01-05T20:03:11.126Z,17.90
2018-01-05T20:05:39.046Z,18.00
2018-01-05T20:08:06.924Z,18.00
2018-01-05T20:10:34.788Z,18.00
2018-01-05T20:13:02.640Z,18.10
2018-01-05T20:15:30.450Z,18.10
2018-01-05T20:17:58.268Z,18.10
2018-01-05T20:20:26.155Z,18.10
2018-01-05T20:22:53.963Z,18.10
2018-01-05T20:25:22.160Z,18.10
2018-01-05T20:27:49.992Z,18.10
2018-01-05T20:30:17.763Z,18.20
2018-01-05T20:32:45.644Z,18.20
2018-01-05T20:35:13.516Z,18.20
2018-01-05T20:37:42.153Z,18.20
2018-01-05T20:40:09.967Z,18.20
2018-01-05T20:42:38.551Z,18.10
2018-01-05T20:45:06.416Z,18.10
2018-01-05T20:47:35.182Z,18.10
2018-01-05T20:50:03.353Z,18.10
2018-01-05T20:52:32.869Z,18.10
2018-01-05T20:55:01.355Z,18.10
2018-01-05T20:57:29.176Z,18.10
2018-01-05T20:59:57.021Z,18.00
2018-01-05T21:02:25.610Z,18.00
2018-01-05T21:04:53.413Z,17.90
2018-01-05T21:07:21.279Z,17.90
2018-01-05T21:09:49.120Z,17.90
2018-01-05T21:12:16.964Z,17.90
2018-01-05T21:14:44.803Z,17.80
2018-01-05T21:17:12.720Z,17.80
2018-01-05T21:19:40.608Z,17.80
2018-01-05T21:22:09.315Z,17.80
2018-01-05T21:24:37.925Z,17.80
2018-01-05T21:27:05.862Z,17.70
2018-01-05T21:29:35.323Z,17.80
2018-01-05T21:32:03.316Z,17.70
2018-01-05T21:34:31.235Z,17.80
2018-01-05T21:37:00.045Z,17.80
2018-01-05T21:39:27.906Z,17.70
2018-01-05T21:41:55.993Z,17.70
2018-01-05T21:44:23.815Z,17.70
2018-01-05T21:46:51.674Z,17.70
2018-01-05T21:49:19.539Z,17.80
2018-01-05T21:51:47.400Z,17.70
2018-01-05T21:54:15.225Z,17.70
2018-01-05T21:56:43.022Z,17.70
2018-01-05T21:59:11.644Z,17.80
2018-01-05T22:01:39.485Z,17.70
2018-01-05T22:04:08.115Z,17.80
2018-01-05T22:06:35.929Z,17.80
2018-01-05T22:09:04.568Z,17.80
2018-01-05T22:11:33.189Z,17.80
2018-01-05T22:14:01.007Z,17.80
2018-01-05T22:16:28.865Z,17.80
2018-01-05T22:18:56.834Z,17.80
2018-01-05T22:21:24.728Z,17.80
2018-01-05T22:23:52.901Z,17.80
2018-01-05T22:26:20.796Z,17.80
2018-01-05T22:28:48.612Z,17.80
2018-01-05T22:31:16.404Z,17.90
2018-01-05T22:33:44.306Z,17.80
2018-01-05T22:36:12.231Z,17.80
2018-01-05T22:38:40.376Z,17.80
2018-01-05T22:41:08.260Z,17.80
2018-01-05T22:43:36.113Z,17.80
2018-01-05T22:46:04.768Z,17.70
2018-01-05T22:48:32.580Z,17.70
2018-01-05T22:51:00.404Z,17.70
2018-01-05T22:53:28.255Z,17.70
2018-01-05T22:55:56.114Z,17.70
2018-01-05T22:58:24.021Z,17.70
2018-01-05T23:00:51.869Z,17.70
2018-01-05T23:03:20.430Z,17.60
2018-01-05T23:05:48.284Z,17.60
2018-01-05T23:08:16.116Z,17.60
2018-01-05T23:10:44.039Z,17.60
2018-01-05T23:13:11.925Z,17.60
2018-01-05T23:15:40.400Z,17.60
2018-01-05T23:18:08.979Z,17.30
2018-01-05T23:20:36.904Z,17.30
2018-01-05T23:23:05.532Z,17.40
2018-01-05T23:25:33.358Z,17.30
2018-01-05T23:28:01.215Z,17.40
2018-01-05T23:30:29.077Z,17.40
2018-01-05T23:32:56.982Z,17.40
2018-01-05T23:35:25.669Z,17.50
2018-01-05T23:37:53.515Z,17.40
2018-01-05T23:40:21.325Z,17.50
2018-01-05T23:42:49.409Z,17.50
2018-01-05T23:45:17.245Z,17.40
2018-01-05T23:47:46.598Z,17.40
2018-01-05T23:50:14.441Z,17.40
2018-01-05T23:52:42.265Z,17.40
2018-01-05T23:55:10.130Z,17.40
2018-01-05T23:57:37.990Z,17.40
